Time;durP1;ratioP1;P1;durP2;ratioP2;P2;SDS_P1;SDS_P2;PMS_P1;PMS_P2;Temp;Humidity;BMP_temperature;BMP_pressure;BME280_temperature;BME280_humidity;BME280_pressure;Samples;Min_cycle;Max_cycle;Signal;HPM_P1;HPM_P2
2021/08/17 00:00:15;;;;;;;;;;;;;;;21.96;64.98;100763.44;443539;118;922699;-65
2021/08/17 00:01:19;;;;;;;;;;;;;;;21.94;65.04;100757.33;444277;118;921518;-66
2021/08/17 00:02:22;;;;;;;;;;;;;;;21.93;65.02;100763.16;444438;118;921472;-66
2021/08/17 00:03:27;;;;;;;;;;;;;;;21.89;65.02;100756.48;444132;118;921424;-66
2021/08/17 00:04:32;;;;;;;;;;;;;;;21.86;65.10;100757.08;443880;116;921639;-67
2021/08/17 00:05:36;;;;;;;;;;;;;;;21.83;65.18;100761.23;443514;118;921384;-66
2021/08/17 00:06:39;;;;;;;;;;;;;;;21.82;65.22;100759.60;443850;118;921464;-66
2021/08/17 00:07:42;;;;;;;;;;;;;;;21.80;65.23;100764.59;443865;118;921429;-66
2021/08/17 00:08:46;;;;;;;;;;;;;;;21.80;65.26;100764.59;444030;118;921660;-66
2021/08/17 00:09:49;;;;;;;;;;;;;;;21.79;65.24;100764.88;443847;118;921487;-66
2021/08/17 00:10:53;;;;;;;;;;;;;;;21.75;65.20;100747.13;442938;118;921715;-66
2021/08/17 00:11:56;;;;;;;;;;;;;;;21.74;65.24;100753.80;442905;118;921965;-67
2021/08/17 00:12:59;;;;;;;;;;;;;;;21.71;65.25;100754.38;443750;118;921474;-65
2021/08/17 00:14:02;;;;;;;;;;;;;;;21.69;65.33;100754.66;443306;118;921588;-66
2021/08/17 00:15:08;;;;;;;;;;;;;;;21.68;65.35;100758.54;443599;118;921504;-66
2021/08/17 00:16:11;;;;;;;;;;;;;;;21.66;65.37;100755.23;443776;118;921440;-66
2021/08/17 00:17:15;;;;;;;;;;;;;;;21.66;65.52;100757.18;443820;118;923171;-66
2021/08/17 00:18:18;;;;;;;;;;;;;;;21.65;65.54;100753.57;443306;118;921608;-66
2021/08/17 00:19:22;;;;;;;;;;;;;;;21.67;65.53;100747.75;443793;118;922691;-66
2021/08/17 00:20:25;;;;;;;;;;;;;;;21.67;65.50;100754.09;443556;118;922694;-65
2021/08/17 00:21:29;;;;;;;;;;;;;;;21.67;65.50;100748.55;444509;118;923142;-64
2021/08/17 00:22:34;;;;;;;;;;;;;;;21.68;65.46;100754.93;443466;118;922625;-67
2021/08/17 00:23:38;;;;;;;;;;;;;;;21.69;65.42;100757.43;443637;118;921567;-67
2021/08/17 00:24:41;;;;;;;;;;;;;;;21.70;65.36;100759.09;443554;116;922633;-67
2021/08/17 00:25:45;;;;;;;;;;;;;;;21.71;65.33;100754.38;442393;118;922684;-66
2021/08/17 00:26:48;;;;;;;;;;;;;;;21.70;65.28;100750.77;442900;118;922666;-65
2021/08/17 00:27:52;;;;;;;;;;;;;;;21.68;65.28;100755.77;443760;118;923121;-65
2021/08/17 00:28:56;;;;;;;;;;;;;;;21.65;65.29;100753.57;436060;120;922631;-66
2021/08/17 00:30:00;;;;;;;;;;;;;;;21.63;65.41;100753.02;436468;120;923084;-65
2021/08/17 00:31:03;;;;;;;;;;;;;;;21.63;65.41;100748.30;443446;118;923167;-64
2021/08/17 00:32:07;;;;;;;;;;;;;;;21.62;65.44;100757.73;443654;118;923441;-67
2021/08/17 00:33:10;;;;;;;;;;;;;;;21.61;65.41;100755.27;443978;118;922648;-66
2021/08/17 00:34:14;;;;;;;;;;;;;;;21.60;65.40;100754.42;443507;116;922675;-66
2021/08/17 00:35:17;;;;;;;;;;;;;;;21.58;65.42;100751.09;443183;118;922675;-67
2021/08/17 00:36:20;;;;;;;;;;;;;;;21.59;65.47;100751.92;443408;118;922770;-67
2021/08/17 00:37:24;;;;;;;;;;;;;;;21.58;65.50;100753.03;443395;118;922719;-66
2021/08/17 00:38:27;;;;;;;;;;;;;;;21.58;65.49;100759.42;443671;118;922757;-64
2021/08/17 00:39:31;;;;;;;;;;;;;;;21.59;65.51;100751.92;443179;116;922782;-66
2021/08/17 00:40:35;;;;;;;;;;;;;;;21.59;65.43;100752.77;443194;118;922638;-66
2021/08/17 00:41:39;;;;;;;;;;;;;;;21.61;65.44;100758.03;443262;118;922646;-66
2021/08/17 00:42:44;;;;;;;;;;;;;;;21.62;65.44;100762.45;443752;118;922638;-66
2021/08/17 00:43:48;;;;;;;;;;;;;;;21.63;65.35;100761.34;443938;118;921579;-66
2021/08/17 00:44:52;;;;;;;;;;;;;;;21.63;65.32;100758.56;443859;118;923050;-67
2021/08/17 00:45:56;;;;;;;;;;;;;;;21.63;65.28;100758.56;443826;118;922725;-66
2021/08/17 00:47:00;;;;;;;;;;;;;;;21.63;65.19;100759.39;443081;118;922705;-64
2021/08/17 00:48:04;;;;;;;;;;;;;;;21.63;65.16;100755.78;443830;118;921522;-66
2021/08/17 00:49:07;;;;;;;;;;;;;;;21.64;65.15;100760.23;443789;118;922707;-67
2021/08/17 00:50:11;;;;;;;;;;;;;;;21.64;65.09;100754.68;443707;118;923133;-66
2021/08/17 00:51:14;;;;;;;;;;;;;;;21.65;65.07;100759.12;443227;118;922690;-65
2021/08/17 00:52:18;;;;;;;;;;;;;;;21.65;65.01;100761.89;443622;118;922642;-66
2021/08/17 00:53:22;;;;;;;;;;;;;;;21.65;64.95;100756.34;443593;118;922668;-66
2021/08/17 00:54:25;;;;;;;;;;;;;;;21.65;64.93;100761.89;443609;118;922702;-65
2021/08/17 00:55:31;;;;;;;;;;;;;;;21.66;64.91;100760.79;442199;118;922759;-66
2021/08/17 00:56:35;;;;;;;;;;;;;;;21.65;64.88;100761.89;443838;118;922689;-66
2021/08/17 00:57:42;;;;;;;;;;;;;;;21.66;64.99;100762.73;443743;118;921434;-66
2021/08/17 00:58:45;;;;;;;;;;;;;;;21.65;65.06;100764.67;444200;118;922658;-66
2021/08/17 00:59:48;;;;;;;;;;;;;;;21.65;65.20;100770.22;443677;118;921515;-66
2021/08/17 01:00:52;;;;;;;;;;;;;;;21.64;65.21;100766.61;443454;118;922672;-66
2021/08/17 01:01:56;;;;;;;;;;;;;;;21.63;65.17;100769.66;444271;118;921431;-66
2021/08/17 01:02:59;;;;;;;;;;;;;;;21.60;65.20;100767.47;444174;118;921465;-65
2021/08/17 01:04:03;;;;;;;;;;;;;;;21.56;65.28;100769.13;443917;118;921449;-66
2021/08/17 01:05:06;;;;;;;;;;;;;;;21.52;65.38;100763.32;443763;118;921493;-66
2021/08/17 01:06:10;;;;;;;;;;;;;;;21.51;65.48;100769.14;443772;118;921488;-65
2021/08/17 01:07:13;;;;;;;;;;;;;;;21.49;65.54;100772.22;443746;118;921450;-66
2021/08/17 01:08:16;;;;;;;;;;;;;;;21.47;65.56;100770.83;444410;118;921588;-66
2021/08/17 01:09:19;;;;;;;;;;;;;;;21.43;65.67;100767.80;443446;118;921471;-67
2021/08/17 01:10:23;;;;;;;;;;;;;;;21.41;65.72;100771.95;443186;118;921561;-65
2021/08/17 01:11:26;;;;;;;;;;;;;;;21.39;65.75;100774.20;443695;118;921442;-65
2021/08/17 01:12:29;;;;;;;;;;;;;;;21.37;65.83;100780.02;443563;118;921460;-65
2021/08/17 01:13:32;;;;;;;;;;;;;;;21.36;65.83;100777.52;444027;118;921808;-66
2021/08/17 01:14:36;;;;;;;;;;;;;;;21.33;65.84;100778.93;443947;118;921418;-66
2021/08/17 01:15:39;;;;;;;;;;;;;;;21.32;65.94;100776.43;443577;118;921733;-66
2021/08/17 01:16:42;;;;;;;;;;;;;;;21.30;65.99;100779.48;443212;118;921393;-65
2021/08/17 01:17:45;;;;;;;;;;;;;;;21.29;66.03;100777.81;443305;118;921481;-66
2021/08/17 01:18:49;;;;;;;;;;;;;;;21.27;66.11;100777.28;443517;118;921817;-66
2021/08/17 01:19:52;;;;;;;;;;;;;;;21.26;66.17;100783.94;442983;118;921806;-66
2021/08/17 01:20:56;;;;;;;;;;;;;;;21.25;66.11;100785.03;443345;118;921505;-66
2021/08/17 01:21:59;;;;;;;;;;;;;;;21.23;66.10;100788.08;443024;118;922692;-64
2021/08/17 01:23:03;;;;;;;;;;;;;;;21.21;66.11;100778.40;443563;118;924084;-66
2021/08/17 01:24:06;;;;;;;;;;;;;;;21.19;66.14;100786.16;443234;118;922677;-66
2021/08/17 01:25:10;;;;;;;;;;;;;;;21.17;66.20;100782.85;442766;118;921618;-66
2021/08/17 01:26:13;;;;;;;;;;;;;;;21.15;66.23;100779.52;443906;118;921490;-66
2021/08/17 01:27:17;;;;;;;;;;;;;;;21.12;66.23;100786.41;443839;118;921513;-66
2021/08/17 01:28:20;;;;;;;;;;;;;;;21.11;66.26;100787.54;443641;118;923698;-65
2021/08/17 01:29:24;;;;;;;;;;;;;;;21.10;66.35;100780.33;443322;118;922749;-65
2021/08/17 01:30:27;;;;;;;;;;;;;;;21.09;66.46;100781.44;443203;118;922687;-66
2021/08/17 01:31:31;;;;;;;;;;;;;;;21.10;66.55;100787.81;443602;118;923118;-66
2021/08/17 01:32:35;;;;;;;;;;;;;;;21.11;66.58;100783.94;443775;118;922959;-65
2021/08/17 01:33:38;;;;;;;;;;;;;;;21.11;66.63;100787.54;443542;118;922676;-65
2021/08/17 01:34:42;;;;;;;;;;;;;;;21.13;66.63;100785.30;443539;116;923169;-66
2021/08/17 01:35:46;;;;;;;;;;;;;;;21.15;66.62;100785.89;443345;118;922672;-65
2021/08/17 01:36:50;;;;;;;;;;;;;;;21.17;66.56;100783.66;443450;118;923120;-66
2021/08/17 01:37:54;;;;;;;;;;;;;;;21.20;66.49;100790.59;443957;118;923471;-65
2021/08/17 01:38:57;;;;;;;;;;;;;;;21.21;66.46;100787.55;442358;118;922661;-65
2021/08/17 01:40:02;;;;;;;;;;;;;;;21.21;66.38;100784.78;443822;117;923355;-66
2021/08/17 01:41:06;;;;;;;;;;;;;;;21.21;66.37;100787.55;447009;117;922749;-68
2021/08/17 01:42:11;;;;;;;;;;;;;;;21.21;66.30;100790.33;446342;117;923161;-65
2021/08/17 01:43:16;;;;;;;;;;;;;;;21.20;66.32;100787.83;446587;117;922667;-65
2021/08/17 01:44:20;;;;;;;;;;;;;;;21.17;66.30;100791.97;446551;117;923403;-67
2021/08/17 01:45:23;;;;;;;;;;;;;;;21.15;66.39;100787.84;446354;115;922597;-66
2021/08/17 01:46:27;;;;;;;;;;;;;;;21.13;66.50;100787.23;446685;117;923138;-64
2021/08/17 01:47:31;;;;;;;;;;;;;;;21.13;66.56;100790.02;446777;117;922691;-66
2021/08/17 01:48:35;;;;;;;;;;;;;;;21.14;66.56;100789.77;446519;117;921587;-66
2021/08/17 01:49:38;;;;;;;;;;;;;;;21.14;66.54;100784.23;446696;117;922672;-66
2021/08/17 01:50:41;;;;;;;;;;;;;;;21.15;66.52;100779.52;446997;117;921333;-66
2021/08/17 01:51:45;;;;;;;;;;;;;;;21.16;66.54;100792.27;447186;117;922674;-65
2021/08/17 01:52:48;;;;;;;;;;;;;;;21.16;66.55;100778.41;446731;117;923605;-64
2021/08/17 01:53:52;;;;;;;;;;;;;;;21.16;66.48;100786.73;445816;117;923062;-64
2021/08/17 01:54:56;;;;;;;;;;;;;;;21.16;66.48;100784.79;446196;117;922659;-68
2021/08/17 01:56:10;;;;;;;;;;;;;;;21.16;66.45;100787.56;446801;117;922639;-66
2021/08/17 01:57:14;;;;;;;;;;;;;;;21.17;66.40;100783.66;446599;117;922609;-65
2021/08/17 01:58:17;;;;;;;;;;;;;;;21.19;66.37;100789.77;446702;117;922665;-65
2021/08/17 01:59:21;;;;;;;;;;;;;;;21.19;66.35;100786.98;446818;117;921502;-66
2021/08/17 02:00:24;;;;;;;;;;;;;;;21.19;66.27;100800.85;446187;115;923303;-67
2021/08/17 02:01:28;;;;;;;;;;;;;;;21.18;66.27;100795.58;446890;117;923159;-65
2021/08/17 02:02:32;;;;;;;;;;;;;;;21.18;66.29;100793.64;446474;117;922801;-66
2021/08/17 02:03:36;;;;;;;;;;;;;;;21.17;66.30;100794.75;446804;117;921683;-66
2021/08/17 02:04:39;;;;;;;;;;;;;;;21.17;66.31;100794.75;446542;117;922720;-66
2021/08/17 02:05:45;;;;;;;;;;;;;;;21.17;66.30;100794.75;446623;117;922711;-66
2021/08/17 02:06:49;;;;;;;;;;;;;;;21.17;66.24;100793.94;438959;119;923192;-64
2021/08/17 02:07:54;;;;;;;;;;;;;;;21.17;66.27;100796.72;446140;117;921521;-66
2021/08/17 02:08:58;;;;;;;;;;;;;;;21.18;66.20;100795.58;446310;117;921471;-65
2021/08/17 02:10:01;;;;;;;;;;;;;;;21.18;66.21;100798.35;432549;122;921580;-66
2021/08/17 02:11:04;;;;;;;;;;;;;;;21.18;66.11;100807.50;434019;120;922011;-64
2021/08/17 02:12:07;;;;;;;;;;;;;;;21.17;66.10;100808.61;447493;117;921455;-64
2021/08/17 02:13:11;;;;;;;;;;;;;;;21.17;66.11;100807.81;443069;118;921509;-66
2021/08/17 02:14:14;;;;;;;;;;;;;;;21.17;66.09;100805.03;443087;118;921420;-67
2021/08/17 02:15:17;;;;;;;;;;;;;;;21.17;66.07;100805.84;443081;118;921932;-67
2021/08/17 02:16:20;;;;;;;;;;;;;;;21.17;65.94;100808.61;443186;118;921411;-67
2021/08/17 02:17:24;;;;;;;;;;;;;;;21.16;65.86;100798.66;443102;118;921541;-66
2021/08/17 02:18:30;;;;;;;;;;;;;;;21.14;65.90;100803.64;443061;118;921438;-66
2021/08/17 02:19:34;;;;;;;;;;;;;;;21.11;65.89;100806.95;442673;118;921589;-65
2021/08/17 02:20:37;;;;;;;;;;;;;;;21.11;65.97;100806.95;442764;118;922013;-67
2021/08/17 02:21:40;;;;;;;;;;;;;;;21.10;65.90;100816.37;443165;118;921382;-67
2021/08/17 02:22:43;;;;;;;;;;;;;;;21.09;65.95;100806.39;442721;118;921399;-66
2021/08/17 02:23:46;;;;;;;;;;;;;;;21.07;65.92;100810.53;441185;118;921698;-65
2021/08/17 02:24:51;;;;;;;;;;;;;;;21.06;65.97;100817.22;442523;118;921491;-65
2021/08/17 02:25:54;;;;;;;;;;;;;;;21.02;66.01;100807.77;442487;118;923159;-66
2021/08/17 02:26:58;;;;;;;;;;;;;;;20.97;66.13;100808.61;442992;118;922910;-65
2021/08/17 02:28:01;;;;;;;;;;;;;;;20.93;66.19;100807.51;442452;118;922574;-66
2021/08/17 02:29:05;;;;;;;;;;;;;;;20.91;66.33;100811.66;442915;117;921624;-66
2021/08/17 02:30:09;;;;;;;;;;;;;;;20.87;66.38;100805.02;442522;118;922719;-66
2021/08/17 02:31:12;;;;;;;;;;;;;;;20.84;66.52;100811.92;443219;118;923586;-66
2021/08/17 02:32:16;;;;;;;;;;;;;;;20.83;66.63;100806.69;443158;118;921506;-66
2021/08/17 02:33:20;;;;;;;;;;;;;;;20.81;66.73;100815.27;443466;118;923061;-66
2021/08/17 02:34:23;;;;;;;;;;;;;;;20.79;66.76;100809.16;448624;108;921720;-67
2021/08/17 02:35:27;;;;;;;;;;;;;;;20.78;66.94;100824.15;462864;112;921423;-68
2021/08/17 02:36:30;;;;;;;;;;;;;;;20.77;67.04;100815.00;462684;113;921464;-67
2021/08/17 02:37:34;;;;;;;;;;;;;;;20.78;67.11;100821.38;473166;110;922754;-65
2021/08/17 02:38:37;;;;;;;;;;;;;;;20.78;67.13;100821.38;473231;110;923366;-67
2021/08/17 02:39:40;;;;;;;;;;;;;;;20.78;67.14;100830.49;471804;110;922653;-66
2021/08/17 02:40:44;;;;;;;;;;;;;;;20.77;67.18;100828.86;471212;110;923745;-66
2021/08/17 02:41:48;;;;;;;;;;;;;;;20.77;67.22;100817.77;473317;110;922708;-66
2021/08/17 02:42:51;;;;;;;;;;;;;;;20.78;67.31;100818.60;470393;112;922638;-65
2021/08/17 02:43:55;;;;;;;;;;;;;;;20.78;67.33;100816.64;469447;109;923099;-65
2021/08/17 02:45:00;;;;;;;;;;;;;;;20.80;67.36;100819.97;468747;110;922958;-64
2021/08/17 02:46:04;;;;;;;;;;;;;;;20.83;67.34;100818.60;470131;110;923027;-66
2021/08/17 02:47:08;;;;;;;;;;;;;;;20.84;67.27;100819.44;470256;112;922655;-66
2021/08/17 02:48:11;;;;;;;;;;;;;;;20.86;67.29;100826.35;468910;110;922620;-65
2021/08/17 02:49:15;;;;;;;;;;;;;;;20.86;67.29;100819.97;470753;110;921467;-67
2021/08/17 02:50:19;;;;;;;;;;;;;;;20.86;67.31;100812.49;463897;110;922076;-66
2021/08/17 02:51:22;;;;;;;;;;;;;;;20.88;67.22;100823.31;450482;116;922706;-66
2021/08/17 02:52:26;;;;;;;;;;;;;;;20.87;67.25;100825.25;449809;116;922676;-65
2021/08/17 02:53:29;;;;;;;;;;;;;;;20.88;67.27;100821.38;449985;116;922650;-66
2021/08/17 02:54:33;;;;;;;;;;;;;;;20.89;67.28;100820.27;450436;114;923560;-67
2021/08/17 02:55:36;;;;;;;;;;;;;;;20.90;67.27;100819.14;448913;116;922967;-65
2021/08/17 02:56:40;;;;;;;;;;;;;;;20.90;67.21;100818.30;449043;116;922705;-64
2021/08/17 02:57:51;;;;;;;;;;;;;;;20.89;67.17;100823.05;440117;118;922732;-64
2021/08/17 02:58:55;;;;;;;;;;;;;;;20.88;67.11;100818.60;438608;119;922657;-66
2021/08/17 02:59:59;;;;;;;;;;;;;;;20.87;67.07;100818.88;441401;119;922658;-65
2021/08/17 03:01:03;;;;;;;;;;;;;;;20.85;67.04;100823.84;430459;121;922630;-65
2021/08/17 03:02:06;;;;;;;;;;;;;;;20.83;67.05;100818.60;430975;121;922662;-63
2021/08/17 03:03:11;;;;;;;;;;;;;;;20.80;67.05;100828.28;432221;122;923192;-66
2021/08/17 03:04:15;;;;;;;;;;;;;;;20.77;67.13;100823.31;443756;118;922682;-67
2021/08/17 03:05:19;;;;;;;;;;;;;;;20.75;67.18;100824.69;443628;118;922715;-65
2021/08/17 03:06:22;;;;;;;;;;;;;;;20.75;67.26;100821.91;443821;118;923738;-65
2021/08/17 03:07:26;;;;;;;;;;;;;;;20.73;67.29;100827.72;442850;118;922663;-64
2021/08/17 03:08:29;;;;;;;;;;;;;;;20.73;67.36;100826.92;443194;118;921473;-67
2021/08/17 03:09:32;;;;;;;;;;;;;;;20.72;67.38;100836.33;444025;118;923124;-65
2021/08/17 03:10:37;;;;;;;;;;;;;;;20.72;67.48;100828.02;443567;118;923300;-65
2021/08/17 03:11:41;;;;;;;;;;;;;;;20.72;67.53;100836.33;444203;118;921567;-67
2021/08/17 03:12:44;;;;;;;;;;;;;;;20.73;67.58;100829.69;443815;118;921460;-65
2021/08/17 03:13:47;;;;;;;;;;;;;;;20.74;67.57;100828.55;443978;118;921333;-65
2021/08/17 03:14:50;;;;;;;;;;;;;;;20.76;67.59;100829.13;443917;116;921643;-64
2021/08/17 03:15:53;;;;;;;;;;;;;;;20.78;67.55;100836.03;444095;118;921441;-65
2021/08/17 03:16:57;;;;;;;;;;;;;;;20.79;67.56;100831.33;443789;118;921428;-66
2021/08/17 03:18:02;;;;;;;;;;;;;;;20.80;67.53;100839.38;443985;118;921608;-66
2021/08/17 03:19:05;;;;;;;;;;;;;;;20.81;67.55;100832.73;443448;118;921628;-64
2021/08/17 03:20:09;;;;;;;;;;;;;;;20.84;67.57;100839.64;444324;118;921504;-66
2021/08/17 03:21:13;;;;;;;;;;;;;;;20.86;67.53;100834.66;443823;118;921492;-66
2021/08/17 03:22:16;;;;;;;;;;;;;;;20.90;67.48;100827.45;443526;118;921482;-65
2021/08/17 03:23:19;;;;;;;;;;;;;;;20.94;67.41;100838.84;442804;118;921587;-66
2021/08/17 03:24:22;;;;;;;;;;;;;;;20.96;67.33;100840.20;443639;118;921389;-66
2021/08/17 03:25:28;;;;;;;;;;;;;;;21.00;67.31;100837.73;443871;118;921509;-66
2021/08/17 03:26:31;;;;;;;;;;;;;;;21.02;67.19;100830.78;443449;118;921501;-66
2021/08/17 03:27:35;;;;;;;;;;;;;;;21.04;67.10;100831.34;443524;118;921414;-65
2021/08/17 03:28:38;;;;;;;;;;;;;;;21.06;67.07;100831.88;443747;118;922653;-65
2021/08/17 03:29:42;;;;;;;;;;;;;;;21.09;66.98;100834.11;443679;116;922684;-66
2021/08/17 03:30:45;;;;;;;;;;;;;;;21.11;66.97;100840.22;443417;118;922771;-64
2021/08/17 03:31:49;;;;;;;;;;;;;;;21.13;66.89;100831.61;443914;118;923144;-65
2021/08/17 03:32:53;;;;;;;;;;;;;;;21.16;66.82;100836.64;443388;118;922686;-65
2021/08/17 03:33:56;;;;;;;;;;;;;;;21.17;66.68;100839.11;443863;118;921424;-65
2021/08/17 03:35:00;;;;;;;;;;;;;;;21.20;66.63;100834.97;443946;118;924172;-64
2021/08/17 03:36:05;;;;;;;;;;;;;;;21.23;66.54;100839.14;443862;118;923151;-66
2021/08/17 03:37:08;;;;;;;;;;;;;;;21.25;66.46;100842.45;443103;118;922648;-65
2021/08/17 03:38:12;;;;;;;;;;;;;;;21.26;66.38;100838.56;443071;118;923668;-66
2021/08/17 03:39:15;;;;;;;;;;;;;;;21.29;66.33;100846.31;443657;118;922007;-64
2021/08/17 03:40:20;;;;;;;;;;;;;;;21.30;66.29;100836.89;443461;118;922747;-65
2021/08/17 03:41:24;;;;;;;;;;;;;;;21.32;66.22;100840.22;444119;118;925882;-65
2021/08/17 03:42:29;;;;;;;;;;;;;;;21.34;66.18;100840.76;443717;118;923123;-65
2021/08/17 03:43:33;;;;;;;;;;;;;;;21.35;66.15;100839.66;443320;118;922707;-66
2021/08/17 03:44:36;;;;;;;;;;;;;;;21.37;66.08;100842.98;443556;118;923177;-65
2021/08/17 03:45:40;;;;;;;;;;;;;;;21.39;66.05;100840.78;443377;118;922729;-64
2021/08/17 03:46:44;;;;;;;;;;;;;;;21.40;66.02;100834.09;443592;118;922678;-66
2021/08/17 03:47:48;;;;;;;;;;;;;;;21.42;66.02;100834.66;443637;118;922642;-64
2021/08/17 03:48:52;;;;;;;;;;;;;;;21.42;66.01;100843.81;443230;118;923123;-65
2021/08/17 03:49:56;;;;;;;;;;;;;;;21.44;66.02;100835.22;443377;118;922632;-65
2021/08/17 03:50:59;;;;;;;;;;;;;;;21.45;65.94;100832.14;445501;117;923081;-65
2021/08/17 03:52:03;;;;;;;;;;;;;;;21.46;65.91;100836.58;444856;117;922738;-65
2021/08/17 03:53:07;;;;;;;;;;;;;;;21.46;65.92;100835.75;445128;117;921496;-66
2021/08/17 03:54:11;;;;;;;;;;;;;;;21.46;65.87;100838.52;445922;117;922674;-65
2021/08/17 03:55:16;;;;;;;;;;;;;;;21.46;65.91;100833.80;446483;118;922666;-66
2021/08/17 03:56:19;;;;;;;;;;;;;;;21.46;65.87;100830.20;445633;117;923548;-66
2021/08/17 03:57:23;;;;;;;;;;;;;;;21.45;65.94;100837.69;445957;118;922724;-65
2021/08/17 03:58:26;;;;;;;;;;;;;;;21.43;66.07;100831.61;445796;118;922665;-66
2021/08/17 03:59:30;;;;;;;;;;;;;;;21.44;66.11;100830.50;445982;118;922783;-67
2021/08/17 04:00:35;;;;;;;;;;;;;;;21.45;66.10;100839.63;446578;115;922763;-65
2021/08/17 04:01:38;;;;;;;;;;;;;;;21.45;66.20;100834.08;446394;118;922004;-66
2021/08/17 04:02:42;;;;;;;;;;;;;;;21.46;66.22;100832.97;446723;118;923084;-65
2021/08/17 04:03:47;;;;;;;;;;;;;;;21.46;66.27;100831.03;445697;117;922679;-65
2021/08/17 04:04:51;;;;;;;;;;;;;;;21.48;66.27;100831.59;445869;117;922721;-65
2021/08/17 04:05:55;;;;;;;;;;;;;;;21.49;66.24;100832.42;445988;118;923657;-66
2021/08/17 04:06:59;;;;;;;;;;;;;;;21.48;66.28;100836.31;445157;117;922896;-65
2021/08/17 04:08:05;;;;;;;;;;;;;;;21.48;66.27;100830.76;445115;117;921520;-65
2021/08/17 04:09:08;;;;;;;;;;;;;;;21.48;66.34;100830.76;445720;117;922589;-65
2021/08/17 04:10:12;;;;;;;;;;;;;;;21.48;66.30;100833.53;446298;117;921684;-65
2021/08/17 04:11:15;;;;;;;;;;;;;;;21.48;66.29;100833.53;446547;118;921460;-65
2021/08/17 04:12:18;;;;;;;;;;;;;;;21.47;66.35;100832.70;445952;118;921469;-65
2021/08/17 04:13:21;;;;;;;;;;;;;;;21.48;66.50;100831.59;446955;117;921897;-65
2021/08/17 04:14:24;;;;;;;;;;;;;;;21.51;66.50;100838.51;446360;118;921508;-65
2021/08/17 04:15:28;;;;;;;;;;;;;;;21.52;66.53;100829.91;446174;115;921339;-67
2021/08/17 04:16:31;;;;;;;;;;;;;;;21.54;66.49;100832.41;446038;117;921431;-66
2021/08/17 04:17:35;;;;;;;;;;;;;;;21.54;66.46;100833.25;446080;117;921505;-69
2021/08/17 04:18:38;;;;;;;;;;;;;;;21.55;66.47;100837.69;446325;118;922555;-66
2021/08/17 04:19:41;;;;;;;;;;;;;;;21.57;66.46;100826.29;446390;117;923101;-65
2021/08/17 04:20:45;;;;;;;;;;;;;;;21.57;66.36;100829.06;446115;117;923046;-66
2021/08/17 04:21:48;;;;;;;;;;;;;;;21.57;66.34;100837.39;444938;117;921589;-64
2021/08/17 04:22:52;;;;;;;;;;;;;;;21.58;66.35;100827.95;446578;117;921560;-67
2021/08/17 04:23:57;;;;;;;;;;;;;;;21.59;66.30;100835.17;446408;118;921486;-66
2021/08/17 04:25:00;;;;;;;;;;;;;;;21.61;66.33;100830.19;446107;117;921472;-65
2021/08/17 04:26:04;;;;;;;;;;;;;;;21.63;66.39;100836.27;446487;117;923067;-65
2021/08/17 04:27:08;;;;;;;;;;;;;;;21.65;66.35;100825.72;445759;118;922654;-66
2021/08/17 04:28:11;;;;;;;;;;;;;;;21.70;66.36;100835.97;445898;118;922675;-65
2021/08/17 04:29:15;;;;;;;;;;;;;;;21.72;66.25;100834.59;445818;117;921666;-66
2021/08/17 04:30:18;;;;;;;;;;;;;;;21.75;66.26;100831.23;446079;116;922655;-64
2021/08/17 04:31:22;;;;;;;;;;;;;;;21.79;66.27;100832.33;446001;118;922683;-65
2021/08/17 04:32:26;;;;;;;;;;;;;;;21.82;66.22;100829.00;445748;117;922600;-64
2021/08/17 04:33:29;;;;;;;;;;;;;;;21.84;66.15;100826.75;445293;117;922668;-65
2021/08/17 04:34:33;;;;;;;;;;;;;;;21.86;66.02;100835.64;446224;118;922685;-65
2021/08/17 04:35:37;;;;;;;;;;;;;;;21.87;65.97;100826.20;445940;115;922665;-65
2021/08/17 04:36:40;;;;;;;;;;;;;;;21.89;65.88;100834.22;444811;118;922795;-66
2021/08/17 04:37:44;;;;;;;;;;;;;;;21.90;65.84;100825.62;445272;117;922655;-65
2021/08/17 04:38:47;;;;;;;;;;;;;;;21.92;65.79;100819.79;436880;120;922646;-65
2021/08/17 04:39:51;;;;;;;;;;;;;;;21.93;65.80;100827.01;433672;121;923180;-66
2021/08/17 04:40:54;;;;;;;;;;;;;;;21.92;65.77;100823.41;441156;118;922685;-65
2021/08/17 04:41:58;;;;;;;;;;;;;;;21.93;65.86;100825.06;441382;118;922718;-64
2021/08/17 04:43:01;;;;;;;;;;;;;;;21.94;65.88;100828.68;441608;119;921949;-66
2021/08/17 04:44:05;;;;;;;;;;;;;;;21.94;65.91;100823.13;441403;118;923077;-65
2021/08/17 04:45:09;;;;;;;;;;;;;;;21.94;65.97;100823.95;440989;118;922684;-65
2021/08/17 04:46:13;;;;;;;;;;;;;;;21.95;65.98;100822.84;441192;118;923234;-65
2021/08/17 04:47:17;;;;;;;;;;;;;;;21.95;65.96;100817.30;441515;119;922695;-65
2021/08/17 04:48:21;;;;;;;;;;;;;;;21.97;65.97;100823.41;441613;118;923149;-64
2021/08/17 04:49:25;;;;;;;;;;;;;;;21.98;65.99;100822.30;440505;118;922987;-65
2021/08/17 04:50:28;;;;;;;;;;;;;;;21.99;66.02;100823.13;440759;118;922674;-65
2021/08/17 04:51:32;;;;;;;;;;;;;;;22.00;66.00;100825.60;441221;118;922900;-65
2021/08/17 04:52:35;;;;;;;;;;;;;;;22.01;66.06;100830.05;441544;118;923145;-64
2021/08/17 04:53:39;;;;;;;;;;;;;;;22.02;66.13;100834.48;441451;118;922653;-64
2021/08/17 04:54:42;;;;;;;;;;;;;;;22.04;66.15;100829.49;441970;118;922687;-64
2021/08/17 04:55:46;;;;;;;;;;;;;;;22.05;66.09;100825.58;441617;118;922666;-65
2021/08/17 04:56:50;;;;;;;;;;;;;;;22.07;66.06;100832.80;441571;118;922606;-65
2021/08/17 04:57:58;;;;;;;;;;;;;;;22.08;65.99;100831.69;441240;118;922674;-65
2021/08/17 04:59:01;;;;;;;;;;;;;;;22.10;65.97;100835.02;441835;118;922599;-65
2021/08/17 05:00:06;;;;;;;;;;;;;;;22.10;65.96;100835.86;441655;119;923128;-64
2021/08/17 05:01:09;;;;;;;;;;;;;;;22.12;65.87;100836.38;441806;118;921572;-64
2021/08/17 05:02:13;;;;;;;;;;;;;;;22.13;65.88;100837.21;441612;118;922706;-64
2021/08/17 05:03:19;;;;;;;;;;;;;;;22.14;65.93;100836.94;441689;119;922637;-64
2021/08/17 05:04:22;;;;;;;;;;;;;;;22.16;65.91;100839.44;441900;118;921439;-66
2021/08/17 05:05:25;;;;;;;;;;;;;;;22.17;65.89;100841.08;440939;116;921526;-65
2021/08/17 05:06:29;;;;;;;;;;;;;;;22.19;65.86;100839.69;446702;117;921436;-65
2021/08/17 05:07:34;;;;;;;;;;;;;;;22.21;65.95;100844.97;444890;118;921463;-66
2021/08/17 05:08:40;;;;;;;;;;;;;;;22.23;65.94;100839.94;444332;118;921462;-66
2021/08/17 05:09:43;;;;;;;;;;;;;;;22.24;65.97;100842.44;444442;118;921460;-65
2021/08/17 05:10:48;;;;;;;;;;;;;;;22.28;65.93;100845.46;444181;118;921506;-65
2021/08/17 05:11:51;;;;;;;;;;;;;;;22.29;65.96;100847.96;444227;118;921582;-65
2021/08/17 05:12:54;;;;;;;;;;;;;;;22.32;66.02;100846.58;444179;118;921465;-65
2021/08/17 05:13:57;;;;;;;;;;;;;;;22.35;65.96;100844.05;444152;118;921495;-66
2021/08/17 05:15:01;;;;;;;;;;;;;;;22.39;65.90;100845.12;443873;118;921562;-66
2021/08/17 05:16:06;;;;;;;;;;;;;;;22.42;65.80;100849.29;444172;115;921606;-65
2021/08/17 05:17:09;;;;;;;;;;;;;;;22.45;65.68;100848.70;444376;118;921573;-65
2021/08/17 05:18:13;;;;;;;;;;;;;;;22.48;65.64;100839.80;445442;118;921468;-66
2021/08/17 05:19:16;;;;;;;;;;;;;;;22.50;65.58;100834.77;445540;118;922647;-64
2021/08/17 05:20:20;;;;;;;;;;;;;;;22.53;65.43;100831.44;444143;118;921515;-66
2021/08/17 05:21:23;;;;;;;;;;;;;;;22.56;65.26;100833.63;443415;118;921613;-66
2021/08/17 05:22:26;;;;;;;;;;;;;;;22.60;65.10;100836.67;444120;118;922653;-68
2021/08/17 05:23:29;;;;;;;;;;;;;;;22.61;65.05;100841.09;444457;118;921990;-65